Time,TemperatureF,DewpointF,PressureIn,WindDirection,WindDirectionDegrees,WindSpeedMPH,WindSpeedGustMPH,Humidity,HourlyPrecipIn,Conditions,Clouds,dailyrainin,SoftwareType,DateUTC
2013-03-31 00:03:00,28.9,26.3,29.88,NNW,345,0.0,0.0,90,0.00,,,0.00,Wunderground v.1.15,2013-03-31 05:03:00,
2013-03-31 00:08:00,28.8,26.2,29.88,NNW,345,0.0,0.0,90,0.00,,,0.00,Wunderground v.1.15,2013-03-31 05:08:00,
2013-03-31 00:13:00,28.7,26.1,29.88,NNW,345,0.0,0.0,90,0.00,,,0.00,Wunderground v.1.15,2013-03-31 05:13:00,
2013-03-31 00:19:00,28.3,25.7,29.88,NNW,345,0.0,0.0,90,0.00,,,0.00,Wunderground v.1.15,2013-03-31 05:19:00,
2013-03-31 00:26:00,27.8,25.2,29.88,NNW,345,0.0,0.0,90,0.00,,,0.00,Wunderground v.1.15,2013-03-31 05:26:00,
2013-03-31 00:32:00,27.4,25.1,29.88,NNW,345,0.0,0.0,91,0.00,,,0.00,Wunderground v.1.15,2013-03-31 05:32:00,
2013-03-31 00:38:00,27.4,25.1,29.88,NNW,345,0.0,0.0,91,0.00,,,0.00,Wunderground v.1.15,2013-03-31 05:38:00,
2013-03-31 00:43:00,27.2,24.9,29.88,NNW,345,0.0,0.0,91,0.00,,,0.00,Wunderground v.1.15,2013-03-31 05:43:00,
2013-03-31 00:48:00,26.7,24.2,29.87,NNW,345,0.0,0.0,90,0.00,,,0.00,Wunderground v.1.15,2013-03-31 05:48:00,
2013-03-31 00:53:00,26.4,24.1,29.87,NNW,345,0.0,0.0,91,0.00,,,0.00,Wunderground v.1.15,2013-03-31 05:53:00,
2013-03-31 00:58:00,26.9,24.6,29.87,NNW,345,0.0,0.0,91,0.00,,,0.00,Wunderground v.1.15,2013-03-31 05:58:00,
2013-03-31 01:04:00,27.1,24.8,29.87,NNW,345,0.0,0.0,91,0.00,,,0.00,Wunderground v.1.15,2013-03-31 06:04:00,
2013-03-31 01:11:00,27.3,25.0,29.87,NNW,345,0.0,0.0,91,0.00,,,0.00,Wunderground v.1.15,2013-03-31 06:11:00,
2013-03-31 01:16:00,27.8,25.5,29.88,NNW,345,0.0,0.0,91,0.00,,,0.00,Wunderground v.1.15,2013-03-31 06:16:00,
2013-03-31 01:21:00,27.7,25.4,29.88,NNW,345,0.0,0.0,91,0.00,,,0.00,Wunderground v.1.15,2013-03-31 06:21:00,
2013-03-31 01:27:00,27.4,25.1,29.88,NNW,345,0.0,0.0,91,0.00,,,0.00,Wunderground v.1.15,2013-03-31 06:27:00,
2013-03-31 01:32:00,27.4,25.1,29.88,NNW,345,0.0,0.0,91,0.00,,,0.00,Wunderground v.1.15,2013-03-31 06:32:00,
2013-03-31 01:37:00,27.9,25.6,29.88,NNW,345,0.0,0.0,91,0.00,,,0.00,Wunderground v.1.15,2013-03-31 06:37:00,
2013-03-31 01:43:00,28.4,26.4,29.88,NNW,345,0.0,0.0,92,0.00,,,0.00,Wunderground v.1.15,2013-03-31 06:43:00,
2013-03-31 01:49:00,29.0,27.0,29.89,NNW,341,1.0,4.0,92,0.00,,,0.00,Wunderground v.1.15,2013-03-31 06:49:00,
2013-03-31 01:56:00,29.2,27.2,29.88,NNW,341,0.0,2.0,92,0.00,,,0.00,Wunderground v.1.15,2013-03-31 06:56:00,
2013-03-31 02:01:00,28.9,26.9,29.88,NNW,341,0.0,0.0,92,0.00,,,0.00,Wunderground v.1.15,2013-03-31 07:01:00,
2013-03-31 02:06:00,28.5,26.2,29.88,NNW,341,0.0,0.0,91,0.00,,,0.00,Wunderground v.1.15,2013-03-31 07:06:00,
2013-03-31 02:11:00,28.5,26.2,29.89,NNW,341,1.0,1.0,91,0.00,,,0.00,Wunderground v.1.15,2013-03-31 07:11:00,
2013-03-31 02:17:00,28.6,26.6,29.89,NNW,327,4.0,5.0,92,0.00,,,0.00,Wunderground v.1.15,2013-03-31 07:17:00,
2013-03-31 02:22:00,28.9,26.9,29.90,NW,313,7.0,7.0,92,0.00,,,0.00,Wunderground v.1.15,2013-03-31 07:22:00,
2013-03-31 02:27:00,29.1,27.1,29.90,WNW,301,7.0,9.0,92,0.00,,,0.00,Wunderground v.1.15,2013-03-31 07:27:00,
2013-03-31 02:32:00,29.4,27.4,29.90,WNW,299,6.0,7.0,92,0.00,,,0.00,Wunderground v.1.15,2013-03-31 07:32:00,
2013-03-31 02:37:00,29.7,27.7,29.90,WNW,298,5.0,8.0,92,0.00,,,0.00,Wunderground v.1.15,2013-03-31 07:37:00,
2013-03-31 02:42:00,30.1,28.1,29.89,WNW,299,5.0,5.0,92,0.00,,,0.00,Wunderground v.1.15,2013-03-31 07:42:00,
2013-03-31 02:47:00,30.5,28.5,29.90,WNW,300,6.0,8.0,92,0.00,,,0.00,Wunderground v.1.15,2013-03-31 07:47:00,
2013-03-31 02:52:00,30.6,28.6,29.89,WNW,303,5.0,8.0,92,0.00,,,0.00,Wunderground v.1.15,2013-03-31 07:52:00,
2013-03-31 02:57:00,30.8,28.8,29.90,WNW,303,4.0,8.0,92,0.00,,,0.00,Wunderground v.1.15,2013-03-31 07:57:00,
2013-03-31 03:02:00,31.0,28.9,29.89,NW,304,8.0,8.0,92,0.00,,,0.00,Wunderground v.1.15,2013-03-31 08:02:00,
2013-03-31 03:07:00,31.1,29.0,29.90,WNW,298,5.0,9.0,92,0.00,,,0.00,Wunderground v.1.15,2013-03-31 08:07:00,
2013-03-31 03:13:00,31.2,29.1,29.89,WNW,294,7.0,10.0,92,0.00,,,0.00,Wunderground v.1.15,2013-03-31 08:13:00,
2013-03-31 03:17:00,31.3,29.2,29.89,WNW,289,8.0,10.0,92,0.00,,,0.00,Wunderground v.1.15,2013-03-31 08:17:00,
2013-03-31 03:23:00,31.4,29.3,29.90,WNW,288,6.0,9.0,92,0.00,,,0.00,Wunderground v.1.15,2013-03-31 08:23:00,
2013-03-31 03:28:00,31.5,29.4,29.90,WNW,283,8.0,10.0,92,0.00,,,0.00,Wunderground v.1.15,2013-03-31 08:28:00,
2013-03-31 03:33:00,31.5,29.4,29.90,West,281,9.0,9.0,92,0.00,,,0.00,Wunderground v.1.15,2013-03-31 08:33:00,
2013-03-31 03:38:00,31.6,29.5,29.90,West,281,9.0,11.0,92,0.00,,,0.00,Wunderground v.1.15,2013-03-31 08:38:00,
2013-03-31 03:43:00,31.7,29.6,29.89,West,281,5.0,8.0,92,0.00,,,0.00,Wunderground v.1.15,2013-03-31 08:43:00,
2013-03-31 03:48:00,31.7,29.6,29.88,WNW,282,5.0,8.0,92,0.00,,,0.00,Wunderground v.1.15,2013-03-31 08:48:00,
2013-03-31 03:53:00,31.7,29.6,29.89,WNW,282,2.0,5.0,92,0.00,,,0.00,Wunderground v.1.15,2013-03-31 08:53:00,
2013-03-31 03:58:00,31.8,29.7,29.89,WNW,282,7.0,7.0,92,0.00,,,0.00,Wunderground v.1.15,2013-03-31 08:58:00,
2013-03-31 04:03:00,31.8,29.7,29.88,WNW,282,5.0,7.0,92,0.00,,,0.00,Wunderground v.1.15,2013-03-31 09:03:00,
2013-03-31 04:08:00,31.8,30.0,29.88,WNW,282,4.0,7.0,93,0.00,,,0.00,Wunderground v.1.15,2013-03-31 09:08:00,
2013-03-31 04:13:00,31.9,30.1,29.88,West,281,4.0,6.0,93,0.00,,,0.00,Wunderground v.1.15,2013-03-31 09:13:00,
2013-03-31 04:18:00,31.9,30.1,29.87,WNW,282,3.0,7.0,93,0.00,,,0.00,Wunderground v.1.15,2013-03-31 09:18:00,
2013-03-31 04:23:00,31.8,30.0,29.87,WNW,282,4.0,5.0,93,0.00,,,0.00,Wunderground v.1.15,2013-03-31 09:23:00,
2013-03-31 04:28:00,31.7,29.6,29.87,WNW,282,2.0,6.0,92,0.00,,,0.00,Wunderground v.1.15,2013-03-31 09:28:00,
2013-03-31 04:33:00,31.7,29.6,29.87,West,281,4.0,4.0,92,0.00,,,0.00,Wunderground v.1.15,2013-03-31 09:33:00,
2013-03-31 04:38:00,31.8,29.7,29.86,WNW,282,1.0,5.0,92,0.00,,,0.00,Wunderground v.1.15,2013-03-31 09:38:00,
2013-03-31 04:43:00,31.9,30.1,29.86,WNW,282,2.0,4.0,93,0.00,,,0.00,Wunderground v.1.15,2013-03-31 09:43:00,
2013-03-31 04:48:00,32.1,30.3,29.87,WNW,282,5.0,5.0,93,0.00,,,0.00,Wunderground v.1.15,2013-03-31 09:48:00,
2013-03-31 04:53:00,32.1,30.3,29.87,WNW,282,3.0,3.0,93,0.00,,,0.00,Wunderground v.1.15,2013-03-31 09:53:00,
2013-03-31 04:58:00,32.1,30.3,29.86,WNW,282,5.0,7.0,93,0.00,,,0.00,Wunderground v.1.15,2013-03-31 09:58:00,
2013-03-31 05:03:00,32.3,30.5,29.86,WNW,283,8.0,9.0,93,0.00,,,0.00,Wunderground v.1.15,2013-03-31 10:03:00,
2013-03-31 05:08:00,32.5,30.7,29.86,West,281,6.0,10.0,93,0.00,,,0.00,Wunderground v.1.15,2013-03-31 10:08:00,
2013-03-31 05:13:00,32.3,30.5,29.86,West,281,6.0,8.0,93,0.00,,,0.00,Wunderground v.1.15,2013-03-31 10:13:00,
2013-03-31 05:18:00,32.4,30.6,29.86,West,281,6.0,9.0,93,0.00,,,0.00,Wunderground v.1.15,2013-03-31 10:18:00,
2013-03-31 05:23:00,32.4,30.6,29.86,West,281,5.0,8.0,93,0.00,,,0.00,Wunderground v.1.15,2013-03-31 10:23:00,
2013-03-31 05:28:00,32.2,30.4,29.86,West,281,6.0,9.0,93,0.00,,,0.00,Wunderground v.1.15,2013-03-31 10:28:00,
2013-03-31 05:33:00,32.1,30.3,29.86,West,280,7.0,9.0,93,0.00,,,0.00,Wunderground v.1.15,2013-03-31 10:33:00,
2013-03-31 05:38:00,32.1,30.3,29.86,West,281,4.0,9.0,93,0.00,,,0.00,Wunderground v.1.15,2013-03-31 10:38:00,
2013-03-31 05:43:00,32.1,30.3,29.86,West,281,6.0,8.0,93,0.00,,,0.00,Wunderground v.1.15,2013-03-31 10:43:00,
2013-03-31 05:48:00,32.0,30.2,29.86,WNW,284,6.0,8.0,93,0.00,,,0.00,Wunderground v.1.15,2013-03-31 10:48:00,
2013-03-31 05:53:00,31.8,29.7,29.86,WNW,284,8.0,8.0,92,0.00,,,0.00,Wunderground v.1.15,2013-03-31 10:53:00,
2013-03-31 05:58:00,31.9,29.8,29.86,WNW,286,6.0,10.0,92,0.00,,,0.00,Wunderground v.1.15,2013-03-31 10:58:00,
2013-03-31 06:03:00,31.9,29.8,29.86,WNW,286,5.0,8.0,92,0.00,,,0.00,Wunderground v.1.15,2013-03-31 11:03:00,
2013-03-31 06:08:00,31.6,29.5,29.86,WNW,286,7.0,9.0,92,0.00,,,0.00,Wunderground v.1.15,2013-03-31 11:08:00,
2013-03-31 06:13:00,31.7,29.6,29.86,WNW,286,5.0,7.0,92,0.00,,,0.00,Wunderground v.1.15,2013-03-31 11:13:00,
2013-03-31 06:19:00,31.7,29.6,29.87,WNW,286,6.0,8.0,92,0.00,,,0.00,Wunderground v.1.15,2013-03-31 11:19:00,
2013-03-31 06:24:00,31.7,29.6,29.86,WNW,286,5.0,7.0,92,0.00,,,0.00,Wunderground v.1.15,2013-03-31 11:24:00,
2013-03-31 06:29:00,31.3,29.2,29.86,WNW,286,5.0,7.0,92,0.00,,,0.00,Wunderground v.1.15,2013-03-31 11:29:00,
2013-03-31 06:34:00,31.0,28.9,29.87,WNW,285,5.0,7.0,92,0.00,,,0.00,Wunderground v.1.15,2013-03-31 11:34:00,
2013-03-31 06:39:00,30.7,28.7,29.86,WNW,285,6.0,7.0,92,0.00,,,0.00,Wunderground v.1.15,2013-03-31 11:39:00,
2013-03-31 06:44:00,30.6,28.6,29.87,WNW,285,6.0,9.0,92,0.00,,,0.00,Wunderground v.1.15,2013-03-31 11:44:00,
2013-03-31 06:49:00,30.7,28.7,29.86,WNW,283,6.0,9.0,92,0.00,,,0.00,Wunderground v.1.15,2013-03-31 11:49:00,
2013-03-31 06:54:00,30.7,28.7,29.86,West,281,6.0,8.0,92,0.00,,,0.00,Wunderground v.1.15,2013-03-31 11:54:00,
2013-03-31 06:59:00,30.7,28.7,29.86,West,281,3.0,8.0,92,0.00,,,0.00,Wunderground v.1.15,2013-03-31 11:59:00,
2013-03-31 07:04:00,30.6,28.6,29.87,West,281,9.0,9.0,92,0.00,,,0.00,Wunderground v.1.15,2013-03-31 12:04:00,
2013-03-31 07:09:00,30.8,28.8,29.86,West,280,7.0,9.0,92,0.00,,,0.00,Wunderground v.1.15,2013-03-31 12:09:00,
2013-03-31 07:14:00,30.9,28.6,29.86,West,279,7.0,9.0,91,0.00,,,0.00,Wunderground v.1.15,2013-03-31 12:14:00,
2013-03-31 07:19:00,31.1,28.8,29.86,West,279,7.0,10.0,91,0.00,,,0.00,Wunderground v.1.15,2013-03-31 12:19:00,
2013-03-31 07:24:00,31.4,29.3,29.87,West,275,8.0,11.0,92,0.00,,,0.00,Wunderground v.1.15,2013-03-31 12:24:00,
2013-03-31 07:29:00,31.4,29.1,29.87,West,275,10.0,12.0,91,0.00,,,0.00,Wunderground v.1.15,2013-03-31 12:29:00,
2013-03-31 07:34:00,31.4,29.1,29.87,West,281,13.0,16.0,91,0.00,,,0.00,Wunderground v.1.15,2013-03-31 12:34:00,
2013-03-31 07:39:00,31.8,29.5,29.87,West,277,9.0,16.0,91,0.00,,,0.00,Wunderground v.1.15,2013-03-31 12:39:00,
2013-03-31 07:44:00,31.9,29.6,29.87,West,275,8.0,12.0,91,0.00,,,0.00,Wunderground v.1.15,2013-03-31 12:44:00,
2013-03-31 07:49:00,32.0,29.7,29.87,West,277,8.0,15.0,91,0.00,,,0.00,Wunderground v.1.15,2013-03-31 12:49:00,
2013-03-31 07:54:00,32.2,29.9,29.87,West,280,7.0,12.0,91,0.00,,,0.00,Wunderground v.1.15,2013-03-31 12:54:00,
2013-03-31 07:59:00,32.3,30.0,29.87,WNW,286,8.0,16.0,91,0.00,,,0.00,Wunderground v.1.15,2013-03-31 12:59:00,
2013-03-31 08:04:00,32.4,29.8,29.87,WNW,287,8.0,12.0,90,0.00,,,0.00,Wunderground v.1.15,2013-03-31 13:04:00,
2013-03-31 08:09:00,32.4,29.8,29.87,WNW,287,9.0,12.0,90,0.00,,,0.00,Wunderground v.1.15,2013-03-31 13:09:00,
2013-03-31 08:14:00,32.5,29.9,29.87,WNW,286,6.0,11.0,90,0.00,,,0.00,Wunderground v.1.15,2013-03-31 13:14:00,
2013-03-31 08:19:00,32.9,30.3,29.87,WNW,292,9.0,11.0,90,0.00,,,0.00,Wunderground v.1.15,2013-03-31 13:19:00,
2013-03-31 08:24:00,33.3,30.7,29.88,NW,304,14.0,15.0,90,0.00,,,0.00,Wunderground v.1.15,2013-03-31 13:24:00,
2013-03-31 08:29:00,33.5,30.6,29.88,NW,307,9.0,15.0,89,0.00,,,0.00,Wunderground v.1.15,2013-03-31 13:29:00,
2013-03-31 08:34:00,33.6,30.7,29.88,NW,307,10.0,16.0,89,0.00,,,0.00,Wunderground v.1.15,2013-03-31 13:34:00,
2013-03-31 08:39:00,33.7,30.8,29.88,NW,315,11.0,16.0,89,0.00,,,0.00,Wunderground v.1.15,2013-03-31 13:39:00,
2013-03-31 08:44:00,34.0,30.8,29.88,NW,317,11.0,15.0,88,0.00,,,0.00,Wunderground v.1.15,2013-03-31 13:44:00,
2013-03-31 08:49:00,34.3,30.8,29.89,WNW,296,16.0,17.0,87,0.00,,,0.00,Wunderground v.1.15,2013-03-31 13:49:00,
2013-03-31 08:54:00,34.4,30.9,29.89,NW,317,15.0,18.0,87,0.00,,,0.00,Wunderground v.1.15,2013-03-31 13:54:00,
2013-03-31 08:59:00,34.4,30.4,29.89,NW,306,13.0,20.0,85,0.00,,,0.00,Wunderground v.1.15,2013-03-31 13:59:00,
2013-03-31 09:04:00,34.7,30.4,29.89,NW,317,18.0,19.0,84,0.00,,,0.00,Wunderground v.1.15,2013-03-31 14:04:00,
2013-03-31 09:09:00,35.0,30.4,29.89,NW,319,12.0,21.0,83,0.00,,,0.00,Wunderground v.1.15,2013-03-31 14:09:00,
2013-03-31 09:14:00,35.1,30.2,29.89,NW,317,11.0,20.0,82,0.00,,,0.00,Wunderground v.1.15,2013-03-31 14:14:00,
2013-03-31 09:19:00,35.0,29.8,29.89,NW,306,18.0,20.0,81,0.00,,,0.00,Wunderground v.1.15,2013-03-31 14:19:00,
2013-03-31 09:24:00,35.1,29.9,29.89,NW,313,16.0,20.0,81,0.00,,,0.00,Wunderground v.1.15,2013-03-31 14:24:00,
2013-03-31 09:29:00,34.7,28.9,29.90,NW,321,17.0,22.0,79,0.00,,,0.00,Wunderground v.1.15,2013-03-31 14:29:00,
2013-03-31 09:34:00,34.4,28.6,29.90,NNW,336,16.0,21.0,79,0.00,,,0.00,Wunderground v.1.15,2013-03-31 14:34:00,
2013-03-31 09:39:00,34.9,29.0,29.90,NW,318,20.0,21.0,79,0.00,,,0.00,Wunderground v.1.15,2013-03-31 14:39:00,
2013-03-31 09:44:00,34.4,28.2,29.91,NW,317,14.0,23.0,78,0.00,,,0.00,Wunderground v.1.15,2013-03-31 14:44:00,
2013-03-31 09:49:00,34.7,28.5,29.91,NW,322,15.0,23.0,78,0.00,,,0.00,Wunderground v.1.15,2013-03-31 14:49:00,
2013-03-31 09:54:00,34.5,28.3,29.91,NW,321,9.0,20.0,78,0.00,,,0.00,Wunderground v.1.15,2013-03-31 14:54:00,
2013-03-31 09:59:00,34.5,28.7,29.91,NW,322,16.0,20.0,79,0.00,,,0.00,Wunderground v.1.15,2013-03-31 14:59:00,
2013-03-31 10:04:00,34.4,28.2,29.91,NW,321,14.0,17.0,78,0.00,,,0.00,Wunderground v.1.15,2013-03-31 15:04:00,
2013-03-31 10:09:00,34.4,28.2,29.91,NNW,331,11.0,20.0,78,0.00,,,0.00,Wunderground v.1.15,2013-03-31 15:09:00,
2013-03-31 10:14:00,34.4,27.6,29.92,NW,323,16.0,21.0,76,0.00,,,0.00,Wunderground v.1.15,2013-03-31 15:14:00,
2013-03-31 10:19:00,34.4,27.6,29.92,NW,320,13.0,21.0,76,0.00,,,0.00,Wunderground v.1.15,2013-03-31 15:19:00,
2013-03-31 10:25:00,34.4,28.2,29.92,NW,320,13.0,17.0,78,0.00,,,0.00,Wunderground v.1.15,2013-03-31 15:25:00,
2013-03-31 10:30:00,34.7,28.2,29.93,NNW,336,13.0,13.0,77,0.00,,,0.00,Wunderground v.1.15,2013-03-31 15:30:00,
2013-03-31 10:35:00,35.2,28.4,29.93,NNW,328,13.0,18.0,76,0.00,,,0.00,Wunderground v.1.15,2013-03-31 15:35:00,
2013-03-31 10:40:00,34.7,27.6,29.93,NNW,327,10.0,14.0,75,0.00,,,0.00,Wunderground v.1.15,2013-03-31 15:40:00,
2013-03-31 10:45:00,35.0,27.5,29.93,NW,322,17.0,17.0,74,0.00,,,0.00,Wunderground v.1.15,2013-03-31 15:45:00,
2013-03-31 10:50:00,34.9,27.5,29.94,NW,314,15.0,15.0,74,0.00,,,0.00,Wunderground v.1.15,2013-03-31 15:50:00,
2013-03-31 10:55:00,34.9,27.5,29.94,NW,319,18.0,22.0,74,0.00,,,0.00,Wunderground v.1.15,2013-03-31 15:55:00,
2013-03-31 11:00:00,35.0,26.9,29.94,NW,318,16.0,16.0,72,0.00,,,0.00,Wunderground v.1.15,2013-03-31 16:00:00,
2013-03-31 11:07:00,35.6,27.8,29.94,NW,317,20.0,20.0,73,0.00,,,0.00,Wunderground v.1.15,2013-03-31 16:07:00,
2013-03-31 11:12:00,35.2,27.1,29.94,NW,313,16.0,17.0,72,0.00,,,0.00,Wunderground v.1.15,2013-03-31 16:12:00,
2013-03-31 11:17:00,35.6,26.8,29.94,NW,305,17.0,17.0,70,0.00,,,0.00,Wunderground v.1.15,2013-03-31 16:17:00,
2013-03-31 11:22:00,35.4,26.9,29.94,NW,315,21.0,21.0,71,0.00,,,0.00,Wunderground v.1.15,2013-03-31 16:22:00,
2013-03-31 11:27:00,35.4,26.9,29.94,NNW,331,12.0,24.0,71,0.00,,,0.00,Wunderground v.1.15,2013-03-31 16:27:00,
2013-03-31 11:32:00,35.9,27.7,29.95,NNW,327,22.0,22.0,72,0.00,,,0.00,Wunderground v.1.15,2013-03-31 16:32:00,
2013-03-31 11:37:00,35.6,26.8,29.95,NW,321,13.0,24.0,70,0.00,,,0.00,Wunderground v.1.15,2013-03-31 16:37:00,
2013-03-31 11:42:00,35.7,26.5,29.95,NNW,328,12.0,20.0,69,0.00,,,0.00,Wunderground v.1.15,2013-03-31 16:42:00,
2013-03-31 11:48:00,35.7,26.5,29.95,NNW,329,8.0,24.0,69,0.00,,,0.00,Wunderground v.1.15,2013-03-31 16:48:00,
2013-03-31 11:53:00,36.1,26.6,29.95,NNW,341,13.0,21.0,68,0.00,,,0.00,Wunderground v.1.15,2013-03-31 16:53:00,
2013-03-31 11:58:00,36.2,26.6,29.95,NNW,337,13.0,21.0,68,0.00,,,0.00,Wunderground v.1.15,2013-03-31 16:58:00,
2013-03-31 12:03:00,37.1,27.5,29.95,NNW,338,7.0,19.0,68,0.00,,,0.00,Wunderground v.1.15,2013-03-31 17:03:00,
2013-03-31 12:08:00,37.1,26.8,29.96,NW,323,19.0,19.0,66,0.00,,,0.00,Wunderground v.1.15,2013-03-31 17:08:00,
2013-03-31 12:13:00,37.2,26.5,29.95,NW,310,17.0,22.0,65,0.00,,,0.00,Wunderground v.1.15,2013-03-31 17:13:00,
2013-03-31 12:18:00,36.9,26.2,29.96,NNW,333,14.0,22.0,65,0.00,,,0.00,Wunderground v.1.15,2013-03-31 17:18:00,
2013-03-31 12:23:00,36.9,27.0,29.95,NNW,348,4.0,20.0,67,0.00,,,0.00,Wunderground v.1.15,2013-03-31 17:23:00,
2013-03-31 12:28:00,37.0,27.1,29.95,NNW,339,6.0,20.0,67,0.00,,,0.00,Wunderground v.1.15,2013-03-31 17:28:00,
2013-03-31 12:33:00,37.3,28.1,29.95,NNW,345,6.0,11.0,69,0.00,,,0.00,Wunderground v.1.15,2013-03-31 17:33:00,
2013-03-31 12:38:00,36.7,27.1,29.96,NNW,327,19.0,21.0,68,0.00,,,0.00,Wunderground v.1.15,2013-03-31 17:38:00,
2013-03-31 12:43:00,36.6,27.4,29.96,NW,318,13.0,18.0,69,0.00,,,0.00,Wunderground v.1.15,2013-03-31 17:43:00,
2013-03-31 12:48:00,36.8,27.2,29.96,NW,310,15.0,20.0,68,0.00,,,0.00,Wunderground v.1.15,2013-03-31 17:48:00,
2013-03-31 12:53:00,36.2,26.3,29.96,NW,318,14.0,19.0,67,0.00,,,0.00,Wunderground v.1.15,2013-03-31 17:53:00,
2013-03-31 12:58:00,36.4,26.1,29.96,NW,306,8.0,19.0,66,0.00,,,0.00,Wunderground v.1.15,2013-03-31 17:58:00,
2013-03-31 13:03:00,35.9,26.0,29.97,NNW,335,16.0,21.0,67,0.00,,,0.00,Wunderground v.1.15,2013-03-31 18:03:00,
2013-03-31 13:09:00,35.9,26.0,29.97,NNW,338,10.0,21.0,67,0.00,,,0.00,Wunderground v.1.15,2013-03-31 18:09:00,
2013-03-31 13:14:00,35.9,25.6,29.97,NW,321,18.0,19.0,66,0.00,,,0.00,Wunderground v.1.15,2013-03-31 18:14:00,
2013-03-31 13:19:00,35.5,24.5,29.97,NW,319,14.0,22.0,64,0.00,,,0.00,Wunderground v.1.15,2013-03-31 18:19:00,
2013-03-31 13:24:00,34.8,24.6,29.97,NNW,329,11.0,16.0,66,0.00,,,0.00,Wunderground v.1.15,2013-03-31 18:24:00,
2013-03-31 13:29:00,34.4,24.2,29.97,North,10,15.0,17.0,66,0.00,,,0.00,Wunderground v.1.15,2013-03-31 18:29:00,
2013-03-31 13:34:00,33.9,24.1,29.97,NW,315,17.0,20.0,67,0.00,,,0.00,Wunderground v.1.15,2013-03-31 18:34:00,
2013-03-31 13:39:00,34.4,24.6,29.97,NW,323,16.0,20.0,67,0.00,,,0.00,Wunderground v.1.15,2013-03-31 18:39:00,
2013-03-31 13:44:00,34.4,24.6,29.97,NW,321,15.0,18.0,67,0.00,,,0.00,Wunderground v.1.15,2013-03-31 18:44:00,
2013-03-31 13:49:00,34.1,24.6,29.97,NW,306,15.0,19.0,68,0.00,,,0.00,Wunderground v.1.15,2013-03-31 18:49:00,
2013-03-31 13:54:00,35.1,24.9,29.97,NW,315,12.0,22.0,66,0.00,,,0.00,Wunderground v.1.15,2013-03-31 18:54:00,
2013-03-31 13:59:00,35.1,24.5,29.97,NNW,329,11.0,22.0,65,0.00,,,0.00,Wunderground v.1.15,2013-03-31 18:59:00,
2013-03-31 14:04:00,35.9,25.3,29.97,NNW,340,15.0,15.0,65,0.00,,,0.00,Wunderground v.1.15,2013-03-31 19:04:00,
2013-03-31 14:09:00,35.3,24.3,29.97,NW,325,16.0,22.0,64,0.00,,,0.00,Wunderground v.1.15,2013-03-31 19:09:00,
2013-03-31 14:14:00,35.8,24.4,29.97,NW,322,13.0,21.0,63,0.00,,,0.00,Wunderground v.1.15,2013-03-31 19:14:00,
2013-03-31 14:19:00,36.4,24.6,29.97,NW,315,18.0,24.0,62,0.00,,,0.00,Wunderground v.1.15,2013-03-31 19:19:00,
2013-03-31 14:24:00,36.6,24.8,29.97,NW,309,12.0,22.0,62,0.00,,,0.00,Wunderground v.1.15,2013-03-31 19:24:00,
2013-03-31 14:29:00,36.1,23.9,29.97,NW,319,13.0,25.0,61,0.00,,,0.00,Wunderground v.1.15,2013-03-31 19:29:00,
2013-03-31 14:34:00,37.0,25.2,29.97,NW,316,14.0,18.0,62,0.00,,,0.00,Wunderground v.1.15,2013-03-31 19:34:00,
2013-03-31 14:40:00,36.9,24.7,29.97,NW,323,16.0,18.0,61,0.00,,,0.00,Wunderground v.1.15,2013-03-31 19:40:00,
2013-03-31 14:45:00,36.9,23.9,29.97,NNW,327,16.0,22.0,59,0.00,,,0.00,Wunderground v.1.15,2013-03-31 19:45:00,
2013-03-31 14:50:00,37.0,24.0,29.96,NW,314,17.0,17.0,59,0.00,,,0.00,Wunderground v.1.15,2013-03-31 19:50:00,
2013-03-31 14:55:00,36.8,23.0,29.96,NNW,335,8.0,19.0,57,0.00,,,0.00,Wunderground v.1.15,2013-03-31 19:55:00,
2013-03-31 15:00:00,37.0,24.4,29.96,NW,315,12.0,13.0,60,0.00,,,0.00,Wunderground v.1.15,2013-03-31 20:00:00,
2013-03-31 15:05:00,38.0,24.1,29.96,NNW,330,17.0,23.0,57,0.00,,,0.00,Wunderground v.1.15,2013-03-31 20:05:00,
2013-03-31 15:10:00,38.4,24.9,29.96,NNW,329,8.0,14.0,58,0.00,,,0.00,Wunderground v.1.15,2013-03-31 20:10:00,
2013-03-31 15:15:00,38.1,24.6,29.96,NW,315,12.0,25.0,58,0.00,,,0.00,Wunderground v.1.15,2013-03-31 20:15:00,
2013-03-31 15:20:00,38.8,24.9,29.97,NNW,331,13.0,13.0,57,0.00,,,0.00,Wunderground v.1.15,2013-03-31 20:20:00,
2013-03-31 15:25:00,38.6,24.7,29.97,NW,318,15.0,22.0,57,0.00,,,0.00,Wunderground v.1.15,2013-03-31 20:25:00,
2013-03-31 15:30:00,38.0,23.7,29.96,NW,319,18.0,19.0,56,0.00,,,0.00,Wunderground v.1.15,2013-03-31 20:30:00,
2013-03-31 15:35:00,38.1,24.6,29.97,North,355,5.0,22.0,58,0.00,,,0.00,Wunderground v.1.15,2013-03-31 20:35:00,
2013-03-31 15:41:00,37.9,23.6,29.97,NNW,329,12.0,16.0,56,0.00,,,0.00,Wunderground v.1.15,2013-03-31 20:41:00,
2013-03-31 15:47:00,37.4,23.1,29.97,NNW,334,14.0,18.0,56,0.00,,,0.00,Wunderground v.1.15,2013-03-31 20:47:00,
2013-03-31 15:52:00,37.6,23.7,29.97,NNW,333,13.0,14.0,57,0.00,,,0.00,Wunderground v.1.15,2013-03-31 20:52:00,
2013-03-31 15:57:00,37.4,24.0,29.97,NNW,348,7.0,16.0,58,0.00,,,0.00,Wunderground v.1.15,2013-03-31 20:57:00,
2013-03-31 16:02:00,36.6,22.4,29.97,NW,326,5.0,17.0,56,0.00,,,0.00,Wunderground v.1.15,2013-03-31 21:02:00,
2013-03-31 16:07:00,37.1,22.8,29.97,NW,322,15.0,21.0,56,0.00,,,0.00,Wunderground v.1.15,2013-03-31 21:07:00,
2013-03-31 16:12:00,37.9,24.0,29.97,NNW,342,14.0,15.0,57,0.00,,,0.00,Wunderground v.1.15,2013-03-31 21:12:00,
2013-03-31 16:17:00,36.9,22.2,29.97,NW,324,7.0,18.0,55,0.00,,,0.00,Wunderground v.1.15,2013-03-31 21:17:00,
2013-03-31 16:22:00,36.7,21.6,29.98,NW,323,11.0,11.0,54,0.00,,,0.00,Wunderground v.1.15,2013-03-31 21:22:00,
2013-03-31 16:27:00,36.1,21.5,29.98,North,350,4.0,17.0,55,0.00,,,0.00,Wunderground v.1.15,2013-03-31 21:27:00,
2013-03-31 16:32:00,36.5,21.4,29.98,NNW,337,10.0,13.0,54,0.00,,,0.00,Wunderground v.1.15,2013-03-31 21:32:00,
2013-03-31 16:37:00,36.5,21.0,29.98,NNW,333,3.0,13.0,53,0.00,,,0.00,Wunderground v.1.15,2013-03-31 21:37:00,
2013-03-31 16:42:00,36.7,19.8,29.99,NNW,327,9.0,11.0,50,0.00,,,0.00,Wunderground v.1.15,2013-03-31 21:42:00,
2013-03-31 16:48:00,36.6,20.2,29.99,NW,311,13.0,16.0,51,0.00,,,0.00,Wunderground v.1.15,2013-03-31 21:48:00,
2013-03-31 16:53:00,36.6,18.2,29.99,NNW,340,6.0,8.0,47,0.00,,,0.00,Wunderground v.1.15,2013-03-31 21:53:00,
2013-03-31 16:58:00,36.6,19.7,29.99,NNW,340,11.0,16.0,50,0.00,,,0.00,Wunderground v.1.15,2013-03-31 21:58:00,
2013-03-31 17:03:00,36.0,19.1,30.00,NNW,341,16.0,16.0,50,0.00,,,0.00,Wunderground v.1.15,2013-03-31 22:03:00,
2013-03-31 17:08:00,35.4,19.0,30.00,NNW,333,7.0,19.0,51,0.00,,,0.00,Wunderground v.1.15,2013-03-31 22:08:00,
2013-03-31 17:13:00,35.6,19.2,30.00,NNW,331,13.0,18.0,51,0.00,,,0.00,Wunderground v.1.15,2013-03-31 22:13:00,
2013-03-31 17:18:00,35.7,17.4,30.00,NNW,336,18.0,18.0,47,0.00,,,0.00,Wunderground v.1.15,2013-03-31 22:18:00,
2013-03-31 17:23:00,35.1,16.9,30.00,NW,317,11.0,14.0,47,0.00,,,0.00,Wunderground v.1.15,2013-03-31 22:23:00,
2013-03-31 17:28:00,34.4,18.1,30.00,NNW,348,8.0,15.0,51,0.00,,,0.00,Wunderground v.1.15,2013-03-31 22:28:00,
2013-03-31 17:33:00,34.1,18.7,30.00,NNW,333,8.0,19.0,53,0.00,,,0.00,Wunderground v.1.15,2013-03-31 22:33:00,
2013-03-31 17:38:00,33.5,17.7,30.00,NNW,331,4.0,19.0,52,0.00,,,0.00,Wunderground v.1.15,2013-03-31 22:38:00,
2013-03-31 17:43:00,33.2,18.3,30.00,North,355,3.0,11.0,54,0.00,,,0.00,Wunderground v.1.15,2013-03-31 22:43:00,
2013-03-31 17:48:00,33.0,18.6,30.00,NW,318,13.0,16.0,55,0.00,,,0.00,Wunderground v.1.15,2013-03-31 22:48:00,
2013-03-31 17:53:00,32.8,18.8,30.00,NNW,331,11.0,15.0,56,0.00,,,0.00,Wunderground v.1.15,2013-03-31 22:53:00,
2013-03-31 17:58:00,32.6,19.0,30.01,NNW,331,4.0,15.0,57,0.00,,,0.00,Wunderground v.1.15,2013-03-31 22:58:00,
2013-03-31 18:04:00,32.4,18.4,30.01,NNW,330,8.0,9.0,56,0.00,,,0.00,Wunderground v.1.15,2013-03-31 23:04:00,
2013-03-31 18:09:00,32.4,19.3,30.01,NW,321,9.0,13.0,58,0.00,,,0.00,Wunderground v.1.15,2013-03-31 23:09:00,
2013-03-31 18:14:00,32.2,19.5,30.01,NNW,346,5.0,10.0,59,0.00,,,0.00,Wunderground v.1.15,2013-03-31 23:14:00,
2013-03-31 18:19:00,32.0,19.3,30.01,NNW,329,5.0,10.0,59,0.00,,,0.00,Wunderground v.1.15,2013-03-31 23:19:00,
2013-03-31 18:24:00,31.7,19.8,30.02,NNW,348,7.0,10.0,61,0.00,,,0.00,Wunderground v.1.15,2013-03-31 23:24:00,
2013-03-31 18:29:00,31.3,19.0,30.02,NNW,327,12.0,15.0,60,0.00,,,0.00,Wunderground v.1.15,2013-03-31 23:29:00,
2013-03-31 18:34:00,30.9,18.2,30.03,NNW,340,5.0,11.0,59,0.00,,,0.00,Wunderground v.1.15,2013-03-31 23:34:00,
2013-03-31 18:39:00,30.7,18.1,30.03,NNW,338,7.0,11.0,59,0.00,,,0.00,Wunderground v.1.15,2013-03-31 23:39:00,
2013-03-31 18:44:00,30.5,18.6,30.03,NNW,347,3.0,10.0,61,0.00,,,0.00,Wunderground v.1.15,2013-03-31 23:44:00,
2013-03-31 18:49:00,30.3,18.1,30.04,NW,323,12.0,12.0,60,0.00,,,0.00,Wunderground v.1.15,2013-03-31 23:49:00,
2013-03-31 18:54:00,29.9,17.7,30.03,NNW,345,4.0,8.0,60,0.00,,,0.00,Wunderground v.1.15,2013-03-31 23:54:00,
2013-03-31 18:59:00,29.7,17.5,30.04,NNW,330,6.0,11.0,60,0.00,,,0.00,Wunderground v.1.15,2013-03-31 23:59:00,
2013-03-31 19:04:00,29.5,18.1,30.04,NNW,345,4.0,11.0,62,0.00,,,0.00,Wunderground v.1.15,2013-04-01 00:04:00,
2013-03-31 19:09:00,29.4,18.3,30.04,North,9,4.0,11.0,63,0.00,,,0.00,Wunderground v.1.15,2013-04-01 00:09:00,
2013-03-31 19:14:00,29.3,18.6,30.04,NW,325,7.0,11.0,64,0.00,,,0.00,Wunderground v.1.15,2013-04-01 00:14:00,
2013-03-31 19:19:00,29.1,18.4,30.05,NNW,346,3.0,11.0,64,0.00,,,0.00,Wunderground v.1.15,2013-04-01 00:19:00,
2013-03-31 19:24:00,28.9,17.9,30.05,NNW,331,5.0,9.0,63,0.00,,,0.00,Wunderground v.1.15,2013-04-01 00:24:00,
2013-03-31 19:29:00,28.7,18.1,30.06,NNW,342,6.0,15.0,64,0.00,,,0.00,Wunderground v.1.15,2013-04-01 00:29:00,
2013-03-31 19:34:00,28.5,18.2,30.06,NNW,331,3.0,9.0,65,0.00,,,0.00,Wunderground v.1.15,2013-04-01 00:34:00,
2013-03-31 19:39:00,28.4,18.1,30.06,North,355,5.0,9.0,65,0.00,,,0.00,Wunderground v.1.15,2013-04-01 00:39:00,
2013-03-31 19:44:00,28.1,18.2,30.06,NNW,336,4.0,13.0,66,0.00,,,0.00,Wunderground v.1.15,2013-04-01 00:44:00,
2013-03-31 19:49:00,27.8,18.3,30.06,NNW,332,5.0,15.0,67,0.00,,,0.00,Wunderground v.1.15,2013-04-01 00:49:00,
2013-03-31 19:54:00,27.7,18.5,30.07,NNW,339,7.0,8.0,68,0.00,,,0.00,Wunderground v.1.15,2013-04-01 00:54:00,
2013-03-31 20:00:00,27.4,17.9,30.07,NNW,330,4.0,12.0,67,0.00,,,0.00,Wunderground v.1.15,2013-04-01 01:00:00,
2013-03-31 20:05:00,27.1,17.6,30.07,NNW,335,4.0,11.0,67,0.00,,,0.00,Wunderground v.1.15,2013-04-01 01:05:00,
2013-03-31 20:10:00,26.9,17.4,30.07,NNW,327,5.0,11.0,67,0.00,,,0.00,Wunderground v.1.15,2013-04-01 01:10:00,
2013-03-31 20:15:00,26.5,17.7,30.07,NW,321,7.0,10.0,69,0.00,,,0.00,Wunderground v.1.15,2013-04-01 01:15:00,
2013-03-31 20:20:00,26.5,17.7,30.07,NNW,327,5.0,7.0,69,0.00,,,0.00,Wunderground v.1.15,2013-04-01 01:20:00,
2013-03-31 20:25:00,26.4,17.6,30.08,NNW,340,5.0,12.0,69,0.00,,,0.00,Wunderground v.1.15,2013-04-01 01:25:00,
2013-03-31 20:30:00,26.3,17.5,30.08,NNW,337,2.0,5.0,69,0.00,,,0.00,Wunderground v.1.15,2013-04-01 01:30:00,
2013-03-31 20:35:00,26.1,17.3,30.09,NNW,338,6.0,14.0,69,0.00,,,0.00,Wunderground v.1.15,2013-04-01 01:35:00,
2013-03-31 20:40:00,26.0,17.2,30.09,NW,317,8.0,8.0,69,0.00,,,0.00,Wunderground v.1.15,2013-04-01 01:40:00,
2013-03-31 20:45:00,25.9,17.5,30.09,NNW,340,7.0,16.0,70,0.00,,,0.00,Wunderground v.1.15,2013-04-01 01:45:00,
2013-03-31 20:50:00,25.7,17.3,30.10,NNW,331,5.0,7.0,70,0.00,,,0.00,Wunderground v.1.15,2013-04-01 01:50:00,
2013-03-31 20:55:00,25.5,16.7,30.10,NNW,327,6.0,14.0,69,0.00,,,0.00,Wunderground v.1.15,2013-04-01 01:55:00,
2013-03-31 21:00:00,25.3,16.9,30.10,NNW,341,2.0,6.0,70,0.00,,,0.00,Wunderground v.1.15,2013-04-01 02:00:00,
2013-03-31 21:05:00,25.0,16.6,30.11,NNW,333,1.0,14.0,70,0.00,,,0.00,Wunderground v.1.15,2013-04-01 02:05:00,
2013-03-31 21:10:00,24.8,15.7,30.11,NNW,342,4.0,6.0,68,0.00,,,0.00,Wunderground v.1.15,2013-04-01 02:10:00,
2013-03-31 21:15:00,24.6,15.9,30.11,NNW,331,4.0,9.0,69,0.00,,,0.00,Wunderground v.1.15,2013-04-01 02:15:00,
2013-03-31 21:20:00,24.5,15.4,30.12,North,360,5.0,6.0,68,0.00,,,0.00,Wunderground v.1.15,2013-04-01 02:20:00,
2013-03-31 21:26:00,24.3,15.6,30.12,NNW,342,4.0,9.0,69,0.00,,,0.00,Wunderground v.1.15,2013-04-01 02:26:00,
2013-03-31 21:31:00,24.1,16.1,30.12,NNW,328,4.0,5.0,71,0.00,,,0.00,Wunderground v.1.15,2013-04-01 02:31:00,
2013-03-31 21:37:00,23.9,17.4,30.12,NW,325,13.0,13.0,76,0.00,,,0.00,Wunderground v.1.15,2013-04-01 02:37:00,
2013-03-31 21:42:00,23.8,15.4,30.13,NNW,338,10.0,10.0,70,0.00,,,0.00,Wunderground v.1.15,2013-04-01 02:42:00,
2013-03-31 21:47:00,23.7,15.7,30.13,NNW,330,9.0,11.0,71,0.00,,,0.00,Wunderground v.1.15,2013-04-01 02:47:00,
2013-03-31 21:52:00,23.6,15.6,30.13,NNW,345,7.0,7.0,71,0.00,,,0.00,Wunderground v.1.15,2013-04-01 02:52:00,
2013-03-31 21:57:00,23.5,15.5,30.14,NNW,346,4.0,10.0,71,0.00,,,0.00,Wunderground v.1.15,2013-04-01 02:57:00,
2013-03-31 22:02:00,23.4,15.4,30.14,NNW,338,4.0,10.0,71,0.00,,,0.00,Wunderground v.1.15,2013-04-01 03:02:00,
2013-03-31 22:07:00,23.2,15.2,30.14,NNW,338,7.0,12.0,71,0.00,,,0.00,Wunderground v.1.15,2013-04-01 03:07:00,
2013-03-31 22:12:00,23.1,15.1,30.14,NNW,328,8.0,13.0,71,0.00,,,0.00,Wunderground v.1.15,2013-04-01 03:12:00,
2013-03-31 22:17:00,22.9,14.9,30.15,NNW,340,7.0,13.0,71,0.00,,,0.00,Wunderground v.1.15,2013-04-01 03:17:00,
2013-03-31 22:23:00,22.8,14.5,30.15,NNW,336,7.0,11.0,70,0.00,,,0.00,Wunderground v.1.15,2013-04-01 03:23:00,
2013-03-31 22:28:00,22.7,14.7,30.15,NNW,331,4.0,11.0,71,0.00,,,0.00,Wunderground v.1.15,2013-04-01 03:28:00,
2013-03-31 22:33:00,22.6,14.6,30.15,NNW,342,2.0,9.0,71,0.00,,,0.00,Wunderground v.1.15,2013-04-01 03:33:00,
2013-03-31 22:38:00,22.5,14.5,30.15,NW,321,3.0,9.0,71,0.00,,,0.00,Wunderground v.1.15,2013-04-01 03:38:00,
2013-03-31 22:43:00,22.3,14.6,30.15,NNW,329,4.0,10.0,72,0.00,,,0.00,Wunderground v.1.15,2013-04-01 03:43:00,
2013-03-31 22:48:00,22.2,14.5,30.15,NNW,327,7.0,13.0,72,0.00,,,0.00,Wunderground v.1.15,2013-04-01 03:48:00,
2013-03-31 22:53:00,22.2,14.9,30.15,NNW,336,9.0,14.0,73,0.00,,,0.00,Wunderground v.1.15,2013-04-01 03:53:00,
2013-03-31 22:58:00,22.2,14.9,30.16,NNW,331,3.0,14.0,73,0.00,,,0.00,Wunderground v.1.15,2013-04-01 03:58:00,
2013-03-31 23:00:00,22.2,14.9,30.16,NNW,333,5.0,6.0,73,0.00,,,0.00,Wunderground v.1.15,2013-04-01 04:00:00,
2013-03-31 23:05:00,22.2,14.9,30.16,NNW,337,1.0,9.0,73,0.00,,,0.00,Wunderground v.1.15,2013-04-01 04:05:00,
2013-03-31 23:10:00,22.1,15.1,30.16,NNW,344,1.0,5.0,74,0.00,,,0.00,Wunderground v.1.15,2013-04-01 04:10:00,
2013-03-31 23:13:00,22.1,15.4,30.16,NW,319,10.0,10.0,75,0.00,,,0.00,Wunderground v.1.15,2013-04-01 04:13:00,
2013-03-31 23:18:00,22.0,15.3,30.16,NW,321,14.0,14.0,75,0.00,,,0.00,Wunderground v.1.15,2013-04-01 04:18:00,
2013-03-31 23:23:00,21.9,15.2,30.16,North,350,4.0,9.0,75,0.00,,,0.00,Wunderground v.1.15,2013-04-01 04:23:00,
2013-03-31 23:28:00,21.9,15.5,30.16,NW,321,3.0,17.0,76,0.00,,,0.00,Wunderground v.1.15,2013-04-01 04:28:00,
2013-03-31 23:33:00,21.8,15.4,30.16,NNW,327,6.0,9.0,76,0.00,,,0.00,Wunderground v.1.15,2013-04-01 04:33:00,
2013-03-31 23:38:00,21.7,15.3,30.16,NNW,329,7.0,14.0,76,0.00,,,0.00,Wunderground v.1.15,2013-04-01 04:38:00,
2013-03-31 23:43:00,21.6,14.9,30.16,NNW,333,7.0,13.0,75,0.00,,,0.00,Wunderground v.1.15,2013-04-01 04:43:00,
2013-03-31 23:48:00,21.7,15.0,30.16,NNW,338,6.0,18.0,75,0.00,,,0.00,Wunderground v.1.15,2013-04-01 04:48:00,
2013-03-31 23:53:00,21.6,14.9,30.16,North,355,8.0,19.0,75,0.00,,,0.00,Wunderground v.1.15,2013-04-01 04:53:00,
2013-03-31 23:59:00,21.6,14.6,30.16,NNW,342,7.0,19.0,74,0.00,,,0.00,Wunderground v.1.15,2013-04-01 04:59:00,